Darstellungsparameter: Aktuell verwendete Einstellungen:
Skalierung der Graphiken ... ?
xyx+y,   Skalierungsfaktor:      Skalierung: Modus: x, Faktor: 1
Darstellungszeitraum ... ?
Vom - - bis: - -   Zeitraum: 21.07.2021 - 22.07.2021
Min/Max/Avg-Anzeige ... ?
Zeige MMA aktuell
Zeige MMA Monat
Zeige MMA alles
Zeige --A aktuell
Zeige --A Monat
Zeige --A alles
Keine MMA-Anzeige
MMA:
Average (ber die Originaldaten)
MMA-Basis: 21.07.2021 - 22.07.2021
Quicknavigation für Darstellung... ?
Tage:      1T, 2T, 3T, 5T -1T -2T -3T -5T +1T +2T +3T +5T
Wochen: 1W, 2W, 3W -1W -2W -3W +1W +2W +3W
Monate: 1M, 3M, 6M -1M -3M -6M +1M +3M +6M
Jahre:    1J, 3J, 5J, 10J -1J -3J -5J -10J +1J +3J +5J +10J
Nutze für die Darstellung ... ?
Originaldaten oder Mittelwerte auf ...
Stundenbasis Tagesbasis Wochenbasis
Monatsbasis Jahresbasis      Datenbasis: Original-Daten
Darstellen als:
Statistik (Auto) Statistik J:M      Darstellung:
Zur Graphik,    zurück zur Übersicht aller Sensoren.
 
Tabellarische Datenbersicht: ?
 
Sensor: Nr:Datum:Temp:Abs-Feuchte:Windchill:Wind:
Aussen-T/F 1 21-07-2021 00:00:00 15.6 C 11.44 g/m*3 15.6 C 0 km/h
2 21-07-2021 00:05:00 15.5 C 11.37 g/m*3 15.5 C 0 km/h
3 21-07-2021 00:10:00 15.4 C 11.3 g/m*3 15.4 C 0 km/h
4 21-07-2021 00:15:00 15.3 C 11.23 g/m*3 15.3 C 0 km/h
5 21-07-2021 00:20:00 15.2 C 11.29 g/m*3 15.2 C 0 km/h
6 21-07-2021 00:25:00 15 C 11.16 g/m*3 15 C 0 km/h
7 21-07-2021 00:30:00 14.9 C 11.09 g/m*3 14.9 C 0 km/h
8 21-07-2021 00:35:00 14.7 C 11.08 g/m*3 14.7 C 0 km/h
9 21-07-2021 00:40:00 14.6 C 11.01 g/m*3 14.6 C 0 km/h
10 21-07-2021 00:45:00 14.6 C 11.01 g/m*3 14.6 C 0 km/h
11 21-07-2021 00:50:00 14.4 C 11 g/m*3 14.4 C 0 km/h
12 21-07-2021 00:55:00 14.3 C 10.93 g/m*3 14.3 C 0 km/h
13 21-07-2021 01:00:00 14.2 C 10.87 g/m*3 14.2 C 0 km/h
14 21-07-2021 01:05:00 14.2 C 10.87 g/m*3 14.2 C 0 km/h
15 21-07-2021 01:10:00 14.1 C 10.8 g/m*3 14.1 C 0 km/h
16 21-07-2021 01:15:00 13.9 C 10.79 g/m*3 13.9 C 0 km/h
17 21-07-2021 01:20:00 13.8 C 10.72 g/m*3 13.8 C 0 km/h
18 21-07-2021 01:25:00 13.7 C 10.66 g/m*3 13.7 C 0 km/h
19 21-07-2021 01:30:00 13.7 C 10.66 g/m*3 13.7 C 0 km/h
20 21-07-2021 01:35:00 13.6 C 10.59 g/m*3 13.6 C 0 km/h
21 21-07-2021 01:40:00 13.5 C 10.53 g/m*3 13.5 C 0 km/h
22 21-07-2021 01:45:00 13.4 C 10.46 g/m*3 13.4 C 0 km/h
23 21-07-2021 01:50:00 13.3 C 10.4 g/m*3 13.3 C 0 km/h
24 21-07-2021 01:55:00 13.3 C 10.4 g/m*3 13.3 C 1.6 km/h
25 21-07-2021 02:00:00 13.2 C 10.33 g/m*3 13.2 C 0 km/h
Sensor: Nr:Datum:Temp:Abs-Feuchte:Windchill:Wind:
Aussen-T/F 26 21-07-2021 02:05:00 13.2 C 10.45 g/m*3 13.2 C 0 km/h
27 21-07-2021 02:10:00 13.2 C 10.33 g/m*3 13.2 C 0 km/h
28 21-07-2021 02:15:00 13.1 C 10.27 g/m*3 13.1 C 0 km/h
29 21-07-2021 02:20:00 13 C 10.21 g/m*3 13 C 0 km/h
30 21-07-2021 02:25:00 12.9 C 10.26 g/m*3 12.9 C 0 km/h
31 21-07-2021 02:30:00 12.9 C 10.26 g/m*3 12.9 C 1.6 km/h
32 21-07-2021 02:35:00 12.8 C 10.19 g/m*3 12.8 C 0 km/h
33 21-07-2021 02:40:00 12.8 C 10.19 g/m*3 12.8 C 1.6 km/h
34 21-07-2021 02:45:00 12.8 C 10.19 g/m*3 12.8 C 0 km/h
35 21-07-2021 02:50:00 12.7 C 10.13 g/m*3 12.7 C 0 km/h
36 21-07-2021 02:55:00 12.7 C 10.13 g/m*3 12.7 C 0 km/h
37 21-07-2021 03:00:00 12.6 C 10.07 g/m*3 12.6 C 0 km/h
38 21-07-2021 03:05:00 12.6 C 10.07 g/m*3 12.6 C 0 km/h
39 21-07-2021 03:10:00 12.5 C 10 g/m*3 12.5 C 1.6 km/h
40 21-07-2021 03:15:00 12.5 C 10.11 g/m*3 12.5 C 0 km/h
41 21-07-2021 03:20:00 12.4 C 10.05 g/m*3 12.4 C 0 km/h
42 21-07-2021 03:25:00 12.4 C 10.05 g/m*3 12.4 C 1.6 km/h
43 21-07-2021 03:30:00 12.3 C 9.99 g/m*3 12.3 C 0 km/h
44 21-07-2021 03:35:00 12.3 C 9.99 g/m*3 12.3 C 0 km/h
45 21-07-2021 03:40:00 12.2 C 9.93 g/m*3 12.2 C 0 km/h
46 21-07-2021 03:45:00 12.2 C 9.93 g/m*3 12.2 C 0 km/h
47 21-07-2021 03:50:00 12.1 C 9.87 g/m*3 12.1 C 0 km/h
48 21-07-2021 03:55:00 12.1 C 9.87 g/m*3 12.1 C 0 km/h
49 21-07-2021 04:00:00 12 C 9.8 g/m*3 12 C 0 km/h
50 21-07-2021 04:05:00 11.9 C 9.74 g/m*3 11.9 C 0 km/h
Sensor: Nr:Datum:Temp:Abs-Feuchte:Windchill:Wind:
Aussen-T/F 51 21-07-2021 04:10:00 11.9 C 9.85 g/m*3 11.9 C 0 km/h
52 21-07-2021 04:15:00 11.8 C 9.79 g/m*3 11.8 C 0 km/h
53 21-07-2021 04:20:00 11.8 C 9.79 g/m*3 11.8 C 0 km/h
54 21-07-2021 04:25:00 11.8 C 9.79 g/m*3 11.8 C 0 km/h
55 21-07-2021 04:30:00 11.7 C 9.73 g/m*3 11.7 C 0 km/h
56 21-07-2021 04:35:00 11.7 C 9.73 g/m*3 11.7 C 0 km/h
57 21-07-2021 04:40:00 11.6 C 9.67 g/m*3 11.6 C 0 km/h
58 21-07-2021 04:45:00 11.6 C 9.67 g/m*3 11.6 C 0 km/h
59 21-07-2021 04:50:00 11.5 C 9.71 g/m*3 11.5 C 0 km/h
60 21-07-2021 04:55:00 11.5 C 9.71 g/m*3 11.5 C 0 km/h
61 21-07-2021 05:00:00 11.5 C 9.71 g/m*3 11.5 C 0 km/h
62 21-07-2021 05:05:00 11.4 C 9.55 g/m*3 11.4 C 0 km/h
63 21-07-2021 05:10:00 11.4 C 9.65 g/m*3 11.4 C 0 km/h
64 21-07-2021 05:15:00 11.3 C 9.59 g/m*3 11.3 C 0 km/h
65 21-07-2021 05:20:00 11.3 C 9.59 g/m*3 11.3 C 0 km/h
66 21-07-2021 05:25:00 11.2 C 9.53 g/m*3 11.2 C 0 km/h
67 21-07-2021 05:30:00 11.2 C 9.53 g/m*3 11.2 C 0 km/h
68 21-07-2021 05:35:00 11.2 C 9.53 g/m*3 11.2 C 0 km/h
69 21-07-2021 05:40:00 11.1 C 9.47 g/m*3 11.1 C 0 km/h
70 21-07-2021 05:45:00 11 C 9.41 g/m*3 11 C 0 km/h
71 21-07-2021 05:50:00 10.9 C 9.35 g/m*3 10.9 C 0 km/h
72 21-07-2021 05:55:00 10.9 C 9.35 g/m*3 10.9 C 0 km/h
73 21-07-2021 06:00:00 10.9 C 9.35 g/m*3 10.9 C 0 km/h
74 21-07-2021 06:05:00 10.9 C 9.35 g/m*3 10.9 C 0 km/h
75 21-07-2021 06:10:00 10.8 C 9.29 g/m*3 10.8 C 0 km/h
Sensor: Nr:Datum:Temp:Abs-Feuchte:Windchill:Wind:
Aussen-T/F 76 21-07-2021 06:15:00 10.9 C 9.35 g/m*3 10.9 C 0 km/h
77 21-07-2021 06:20:00 10.9 C 9.35 g/m*3 10.9 C 0 km/h
78 21-07-2021 06:25:00 10.9 C 9.45 g/m*3 10.9 C 0 km/h
79 21-07-2021 06:30:00 10.9 C 9.45 g/m*3 10.9 C 0 km/h
80 21-07-2021 06:35:00 10.9 C 9.45 g/m*3 10.9 C 0 km/h
81 21-07-2021 06:40:00 11 C 9.51 g/m*3 11 C 0 km/h
82 21-07-2021 06:45:00 11.1 C 9.57 g/m*3 11.1 C 0 km/h
83 21-07-2021 06:50:00 11.1 C 9.57 g/m*3 11.1 C 0 km/h
84 21-07-2021 06:55:00 11.2 C 9.63 g/m*3 11.2 C 0 km/h
85 21-07-2021 07:00:00 11.2 C 9.63 g/m*3 11.2 C 0 km/h
86 21-07-2021 07:05:00 11.3 C 9.69 g/m*3 11.3 C 0 km/h
87 21-07-2021 07:10:00 11.3 C 9.69 g/m*3 11.3 C 0 km/h
88 21-07-2021 07:15:00 11.4 C 9.75 g/m*3 11.4 C 0 km/h
89 21-07-2021 07:20:00 11.4 C 9.75 g/m*3 11.4 C 0 km/h
90 21-07-2021 07:25:00 11.6 C 9.98 g/m*3 11.6 C 0 km/h
91 21-07-2021 07:30:00 11.6 C 9.98 g/m*3 11.6 C 0 km/h
92 21-07-2021 07:35:00 11.7 C 10.04 g/m*3 11.7 C 0 km/h
93 21-07-2021 07:40:00 11.8 C 10.1 g/m*3 11.8 C 0 km/h
94 21-07-2021 07:45:00 11.9 C 10.17 g/m*3 11.9 C 0 km/h
95 21-07-2021 07:50:00 11.9 C 10.17 g/m*3 11.9 C 0 km/h
96 21-07-2021 07:55:00 12.1 C 10.29 g/m*3 12.1 C 0 km/h
97 21-07-2021 08:00:00 12.1 C 10.29 g/m*3 12.1 C 0 km/h
98 21-07-2021 08:05:00 12.2 C 10.36 g/m*3 12.2 C 0 km/h
99 21-07-2021 08:10:00 12.3 C 10.42 g/m*3 12.3 C 0 km/h
100 21-07-2021 08:15:00 12.4 C 10.49 g/m*3 12.4 C 0 km/h
Sensor: Nr:Datum:Temp:Abs-Feuchte:Windchill:Wind:
Aussen-T/F 101 21-07-2021 08:20:00 12.5 C 10.55 g/m*3 12.5 C 0 km/h
102 21-07-2021 08:25:00 12.6 C 10.62 g/m*3 12.6 C 0 km/h
103 21-07-2021 08:30:00 12.7 C 10.69 g/m*3 12.7 C 0 km/h
104 21-07-2021 08:35:00 12.7 C 10.69 g/m*3 12.7 C 0 km/h
105 21-07-2021 08:40:00 12.8 C 10.75 g/m*3 12.8 C 0 km/h
106 21-07-2021 08:45:00 12.9 C 10.82 g/m*3 12.9 C 0 km/h
107 21-07-2021 08:50:00 13 C 10.89 g/m*3 13 C 0 km/h
108 21-07-2021 08:55:00 13.1 C 10.95 g/m*3 13.1 C 0 km/h
109 21-07-2021 09:00:00 13.2 C 11.02 g/m*3 13.2 C 0 km/h
110 21-07-2021 09:05:00 13.2 C 11.02 g/m*3 13.2 C 0 km/h
111 21-07-2021 09:10:00 13.3 C 11.09 g/m*3 13.3 C 0 km/h
112 21-07-2021 09:15:00 13.4 C 11.16 g/m*3 13.4 C 0 km/h
113 21-07-2021 09:20:00 13.6 C 11.3 g/m*3 13.6 C 0 km/h
114 21-07-2021 09:25:00 13.7 C 11.37 g/m*3 13.7 C 0 km/h
115 21-07-2021 09:30:00 13.8 C 11.44 g/m*3 13.8 C 1.6 km/h
116 21-07-2021 09:35:00 14 C 11.58 g/m*3 14 C 0 km/h
117 21-07-2021 09:40:00 14.2 C 11.72 g/m*3 14.2 C 0 km/h
118 21-07-2021 09:45:00 14.3 C 11.79 g/m*3 14.3 C 0 km/h
119 21-07-2021 09:50:00 14.4 C 11.87 g/m*3 14.4 C 0 km/h
120 21-07-2021 09:55:00 14.6 C 12.01 g/m*3 14.6 C 0 km/h
121 21-07-2021 10:00:00 14.7 C 12.09 g/m*3 14.7 C 1.6 km/h
122 21-07-2021 10:05:00 14.7 C 11.96 g/m*3 14.7 C 0 km/h
123 21-07-2021 10:10:00 14.8 C 12.03 g/m*3 14.8 C 0 km/h
124 21-07-2021 10:15:00 15 C 12.18 g/m*3 15 C 1.6 km/h
125 21-07-2021 10:20:00 15.2 C 12.33 g/m*3 15.2 C 1.6 km/h
Sensor: Nr:Datum:Temp:Abs-Feuchte:Windchill:Wind:
Aussen-T/F 126 21-07-2021 10:25:00 15.4 C 12.35 g/m*3 15.4 C 1.6 km/h
127 21-07-2021 10:30:00 15.7 C 12.44 g/m*3 15.7 C 1.6 km/h
128 21-07-2021 10:35:00 16.1 C 12.2 g/m*3 16.1 C 6.4 km/h
129 21-07-2021 10:40:00 16.6 C 12.15 g/m*3 16.6 C 1.6 km/h
130 21-07-2021 10:45:00 17.1 C 12.37 g/m*3 17.1 C 1.6 km/h
131 21-07-2021 10:50:00 17.6 C 12.75 g/m*3 17.6 C 1.6 km/h
132 21-07-2021 10:55:00 17.8 C 12.29 g/m*3 17.8 C 4.8 km/h
133 21-07-2021 11:00:00 18.1 C 12.21 g/m*3 18.1 C 1.6 km/h
134 21-07-2021 11:05:00 18.3 C 12.04 g/m*3 18.3 C 0 km/h
135 21-07-2021 11:10:00 18.4 C 12.11 g/m*3 18.4 C 0 km/h
136 21-07-2021 11:15:00 18.7 C 11.53 g/m*3 18.7 C 6.4 km/h
137 21-07-2021 11:20:00 19.2 C 11.54 g/m*3 19.2 C 8.1 km/h
138 21-07-2021 11:25:00 19.5 C 11.41 g/m*3 19.5 C 8.1 km/h
139 21-07-2021 11:30:00 19.8 C 11.61 g/m*3 19.8 C 8.1 km/h
140 21-07-2021 11:35:00 19.9 C 11.34 g/m*3 19.9 C 9.7 km/h
141 21-07-2021 11:40:00 20.1 C 11.13 g/m*3 20.1 C 9.7 km/h
142 21-07-2021 11:45:00 20.2 C 12.24 g/m*3 20.2 C 1.6 km/h
143 21-07-2021 11:50:00 20.2 C 11.19 g/m*3 20.2 C 6.4 km/h
144 21-07-2021 11:55:00 20.4 C 10.97 g/m*3 20.4 C 8.1 km/h
145 21-07-2021 12:00:00 20.7 C 10.8 g/m*3 20.7 C 12.9 km/h
146 21-07-2021 12:05:00 20.8 C 10.68 g/m*3 20.8 C 9.7 km/h
147 21-07-2021 12:10:00 20.9 C 10.75 g/m*3 20.9 C 9.7 km/h
148 21-07-2021 12:15:00 20.9 C 10.56 g/m*3 20.9 C 8.1 km/h
149 21-07-2021 12:20:00 20.9 C 10.75 g/m*3 20.9 C 11.3 km/h
150 21-07-2021 12:25:00 20.9 C 10.38 g/m*3 20.9 C 9.7 km/h
Sensor: Nr:Datum:Temp:Abs-Feuchte:Windchill:Wind:
Aussen-T/F 151 21-07-2021 12:30:00 21.1 C 10.69 g/m*3 21.1 C 12.9 km/h
152 21-07-2021 12:35:00 21.2 C 10.56 g/m*3 21.2 C 11.3 km/h
153 21-07-2021 12:40:00 21.4 C 10.5 g/m*3 21.4 C 11.3 km/h
154 21-07-2021 12:45:00 21.4 C 10.5 g/m*3 21.4 C 8.1 km/h
155 21-07-2021 12:50:00 21.4 C 10.31 g/m*3 21.4 C 8.1 km/h
156 21-07-2021 12:55:00 21.4 C 10.5 g/m*3 21.4 C 8.1 km/h
157 21-07-2021 13:00:00 21.5 C 10.56 g/m*3 21.5 C 8.1 km/h
158 21-07-2021 13:05:00 21.6 C 10.62 g/m*3 21.6 C 9.7 km/h
159 21-07-2021 13:10:00 21.7 C 10.87 g/m*3 21.7 C 0 km/h
160 21-07-2021 13:15:00 21.8 C 10.94 g/m*3 21.8 C 8.1 km/h
161 21-07-2021 13:20:00 21.9 C 10.81 g/m*3 21.9 C 9.7 km/h
162 21-07-2021 13:25:00 21.9 C 10.61 g/m*3 21.9 C 0 km/h
163 21-07-2021 13:30:00 21.8 C 10.94 g/m*3 21.8 C 4.8 km/h
164 21-07-2021 13:35:00 21.9 C 10.81 g/m*3 21.9 C 8.1 km/h
165 21-07-2021 13:40:00 22.1 C 10.93 g/m*3 22.1 C 8.1 km/h
166 21-07-2021 13:45:00 22.1 C 10.93 g/m*3 22.1 C 6.4 km/h
167 21-07-2021 13:50:00 22.1 C 11.32 g/m*3 22.1 C 6.4 km/h
168 21-07-2021 13:55:00 22.1 C 10.93 g/m*3 22.1 C 3.2 km/h
169 21-07-2021 14:00:00 22.1 C 10.54 g/m*3 22.1 C 4.8 km/h
170 21-07-2021 14:05:00 22.2 C 10.8 g/m*3 22.2 C 3.2 km/h
171 21-07-2021 14:10:00 22.2 C 11.39 g/m*3 22.2 C 4.8 km/h
172 21-07-2021 14:15:00 22.4 C 11.12 g/m*3 22.4 C 8.1 km/h
173 21-07-2021 14:20:00 22.6 C 11.05 g/m*3 22.6 C 8.1 km/h
174 21-07-2021 14:25:00 22.6 C 11.65 g/m*3 22.6 C 4.8 km/h
175 21-07-2021 14:30:00 22.6 C 10.85 g/m*3 22.6 C 12.9 km/h
Sensor: Nr:Datum:Temp:Abs-Feuchte:Windchill:Wind:
Aussen-T/F 176 21-07-2021 14:35:00 22.8 C 10.57 g/m*3 22.8 C 9.7 km/h
177 21-07-2021 14:40:00 22.8 C 10.97 g/m*3 22.8 C 8.1 km/h
178 21-07-2021 14:45:00 22.9 C 11.04 g/m*3 22.9 C 6.4 km/h
179 21-07-2021 14:50:00 23.1 C 10.96 g/m*3 23.1 C 12.9 km/h
180 21-07-2021 14:55:00 23.2 C 11.02 g/m*3 23.2 C 8.1 km/h
181 21-07-2021 15:00:00 23.2 C 10.81 g/m*3 23.2 C 0 km/h
182 21-07-2021 15:05:00 23.2 C 11.02 g/m*3 23.2 C 8.1 km/h
183 21-07-2021 15:10:00 23.4 C 10.72 g/m*3 23.4 C 4.8 km/h
184 21-07-2021 15:15:00 23.6 C 11.06 g/m*3 23.6 C 4.8 km/h
185 21-07-2021 15:20:00 23.8 C 10.76 g/m*3 23.8 C 6.4 km/h
186 21-07-2021 15:25:00 24 C 10.88 g/m*3 24 C 6.4 km/h
187 21-07-2021 15:30:00 24.2 C 11 g/m*3 24.2 C 6.4 km/h
188 21-07-2021 15:35:00 24.3 C 10.62 g/m*3 24.3 C 4.8 km/h
189 21-07-2021 15:40:00 24.4 C 10.9 g/m*3 24.4 C 6.4 km/h
190 21-07-2021 15:45:00 24.8 C 11.38 g/m*3 24.8 C 3.2 km/h
191 21-07-2021 15:50:00 25.3 C 11 g/m*3 25.3 C 8.1 km/h
192 21-07-2021 15:55:00 25.8 C 12.04 g/m*3 25.8 C 8.1 km/h
193 21-07-2021 16:00:00 26.3 C 10.89 g/m*3 26.3 C 9.7 km/h
194 21-07-2021 16:05:00 26.5 C 11.51 g/m*3 26.5 C 3.2 km/h
195 21-07-2021 16:10:00 26.7 C 10.63 g/m*3 26.7 C 6.4 km/h
196 21-07-2021 16:15:00 26.8 C 10.69 g/m*3 26.8 C 4.8 km/h
197 21-07-2021 16:20:00 26.6 C 11.33 g/m*3 26.6 C 9.7 km/h
198 21-07-2021 16:25:00 26.5 C 11.77 g/m*3 26.5 C 6.4 km/h
199 21-07-2021 16:30:00 26.7 C 11.39 g/m*3 26.7 C 9.7 km/h
200 21-07-2021 16:35:00 26.7 C 10.63 g/m*3 26.7 C 11.3 km/h
Sensor: Nr:Datum:Temp:Abs-Feuchte:Windchill:Wind:
Aussen-T/F 201 21-07-2021 16:40:00 26.6 C 10.82 g/m*3 26.6 C 9.7 km/h
202 21-07-2021 16:45:00 26.6 C 11.33 g/m*3 26.6 C 8.1 km/h
203 21-07-2021 16:50:00 26.8 C 11.2 g/m*3 26.8 C 3.2 km/h
204 21-07-2021 16:55:00 27.3 C 11.77 g/m*3 27.3 C 0 km/h
205 21-07-2021 17:00:00 27.4 C 11.31 g/m*3 27.4 C 9.7 km/h
206 21-07-2021 17:05:00 27.2 C 10.93 g/m*3 27.2 C 9.7 km/h
207 21-07-2021 17:10:00 27.2 C 11.19 g/m*3 27.2 C 9.7 km/h
208 21-07-2021 17:15:00 27.2 C 10.93 g/m*3 27.2 C 3.2 km/h
209 21-07-2021 17:20:00 27.2 C 11.19 g/m*3 27.2 C 6.4 km/h
210 21-07-2021 17:25:00 27.1 C 10.61 g/m*3 27.1 C 6.4 km/h
211 21-07-2021 17:30:00 27.1 C 11.13 g/m*3 27.1 C 6.4 km/h
212 21-07-2021 17:35:00 27 C 10.29 g/m*3 27 C 8.1 km/h
213 21-07-2021 17:40:00 27.2 C 11.19 g/m*3 27.2 C 4.8 km/h
214 21-07-2021 17:45:00 27.2 C 10.67 g/m*3 27.2 C 6.4 km/h
215 21-07-2021 17:50:00 27 C 11.32 g/m*3 27 C 6.4 km/h
216 21-07-2021 17:55:00 27.2 C 11.45 g/m*3 27.2 C 3.2 km/h
217 21-07-2021 18:00:00 27.4 C 11.05 g/m*3 27.4 C 3.2 km/h
218 21-07-2021 18:05:00 27.4 C 10.52 g/m*3 27.4 C 3.2 km/h
219 21-07-2021 18:10:00 27.6 C 11.44 g/m*3 27.6 C 1.6 km/h
220 21-07-2021 18:15:00 27.8 C 13.72 g/m*3 27.8 C 0 km/h
221 21-07-2021 18:20:00 28.1 C 11.48 g/m*3 28.1 C 4.8 km/h
222 21-07-2021 18:25:00 28.1 C 11.48 g/m*3 28.1 C 6.4 km/h
223 21-07-2021 18:30:00 27.9 C 11.36 g/m*3 27.9 C 4.8 km/h
224 21-07-2021 18:35:00 27.8 C 11.03 g/m*3 27.8 C 9.7 km/h
225 21-07-2021 18:40:00 27.4 C 10.79 g/m*3 27.4 C 6.4 km/h
Sensor: Nr:Datum:Temp:Abs-Feuchte:Windchill:Wind:
Aussen-T/F 226 21-07-2021 18:45:00 27.1 C 10.61 g/m*3 27.1 C 8.1 km/h
227 21-07-2021 18:50:00 27 C 11.07 g/m*3 27 C 3.2 km/h
228 21-07-2021 18:55:00 27 C 11.07 g/m*3 27 C 4.8 km/h
229 21-07-2021 19:00:00 27 C 11.32 g/m*3 27 C 6.4 km/h
230 21-07-2021 19:05:00 26.8 C 10.69 g/m*3 26.8 C 3.2 km/h
231 21-07-2021 19:10:00 26.7 C 12.4 g/m*3 26.7 C 1.6 km/h
232 21-07-2021 19:15:00 26.5 C 11.26 g/m*3 26.5 C 8.1 km/h
233 21-07-2021 19:20:00 26.2 C 11.08 g/m*3 26.2 C 6.4 km/h
234 21-07-2021 19:25:00 25.9 C 10.89 g/m*3 25.9 C 6.4 km/h
235 21-07-2021 19:30:00 25.8 C 11.07 g/m*3 25.8 C 6.4 km/h
236 21-07-2021 19:35:00 25.7 C 13.41 g/m*3 25.7 C 3.2 km/h
237 21-07-2021 19:40:00 25.5 C 14.2 g/m*3 25.5 C 0 km/h
238 21-07-2021 19:45:00 25.1 C 14.58 g/m*3 25.1 C 1.6 km/h
239 21-07-2021 19:50:00 24.4 C 14.02 g/m*3 24.4 C 0 km/h
240 21-07-2021 19:55:00 23.8 C 13.77 g/m*3 23.8 C 3.2 km/h
241 21-07-2021 20:00:00 23.4 C 13.88 g/m*3 23.4 C 3.2 km/h
242 21-07-2021 20:05:00 23.2 C 13.72 g/m*3 23.2 C 3.2 km/h
243 21-07-2021 20:10:00 22.9 C 13.69 g/m*3 22.9 C 3.2 km/h
244 21-07-2021 20:15:00 22.7 C 13.54 g/m*3 22.7 C 3.2 km/h
245 21-07-2021 20:20:00 22.3 C 13.43 g/m*3 22.3 C 3.2 km/h
246 21-07-2021 20:25:00 22.2 C 13.55 g/m*3 22.2 C 0 km/h
247 21-07-2021 20:30:00 21.9 C 13.31 g/m*3 21.9 C 3.2 km/h
248 21-07-2021 20:35:00 21.8 C 13.43 g/m*3 21.8 C 4.8 km/h
249 21-07-2021 20:40:00 21.7 C 13.16 g/m*3 21.7 C 4.8 km/h
250 21-07-2021 20:45:00 21.4 C 13.12 g/m*3 21.4 C 6.4 km/h
Sensor: Nr:Datum:Temp:Abs-Feuchte:Windchill:Wind:
Aussen-T/F 251 21-07-2021 20:50:00 21.2 C 13.16 g/m*3 21.2 C 6.4 km/h
252 21-07-2021 20:55:00 20.9 C 13.11 g/m*3 20.9 C 4.8 km/h
253 21-07-2021 21:00:00 20.7 C 13.32 g/m*3 20.7 C 0 km/h
254 21-07-2021 21:05:00 20.4 C 13.09 g/m*3 20.4 C 3.2 km/h
255 21-07-2021 21:10:00 20.1 C 13.04 g/m*3 20.1 C 4.8 km/h
256 21-07-2021 21:15:00 19.8 C 12.81 g/m*3 19.8 C 3.2 km/h
257 21-07-2021 21:20:00 19.6 C 12.66 g/m*3 19.6 C 6.4 km/h
258 21-07-2021 21:25:00 19.4 C 12.51 g/m*3 19.4 C 6.4 km/h
259 21-07-2021 21:30:00 19.3 C 12.44 g/m*3 19.3 C 6.4 km/h
260 21-07-2021 21:35:00 19.1 C 12.46 g/m*3 19.1 C 6.4 km/h
261 21-07-2021 21:40:00 18.9 C 12.15 g/m*3 18.9 C 4.8 km/h
262 21-07-2021 21:45:00 18.8 C 12.24 g/m*3 18.8 C 6.4 km/h
263 21-07-2021 21:50:00 18.7 C 12.17 g/m*3 18.7 C 8.1 km/h
264 21-07-2021 21:55:00 18.6 C 12.1 g/m*3 18.6 C 6.4 km/h
265 21-07-2021 22:00:00 18.5 C 12.02 g/m*3 18.5 C 4.8 km/h
266 21-07-2021 22:05:00 18.4 C 12.11 g/m*3 18.4 C 4.8 km/h
267 21-07-2021 22:10:00 18.3 C 12.2 g/m*3 18.3 C 6.4 km/h
268 21-07-2021 22:15:00 18.2 C 12.12 g/m*3 18.2 C 6.4 km/h
269 21-07-2021 22:20:00 18.1 C 12.21 g/m*3 18.1 C 4.8 km/h
270 21-07-2021 22:25:00 17.9 C 12.06 g/m*3 17.9 C 4.8 km/h
271 21-07-2021 22:30:00 17.8 C 11.99 g/m*3 17.8 C 0 km/h
272 21-07-2021 22:35:00 17.7 C 12.22 g/m*3 17.7 C 0 km/h
273 21-07-2021 22:40:00 17.5 C 11.93 g/m*3 17.5 C 6.4 km/h
274 21-07-2021 22:45:00 17.4 C 12 g/m*3 17.4 C 6.4 km/h
275 21-07-2021 22:50:00 17.3 C 11.79 g/m*3 17.3 C 6.4 km/h
Sensor: Nr:Datum:Temp:Abs-Feuchte:Windchill:Wind:
Aussen-T/F 276 21-07-2021 22:55:00 17.3 C 11.93 g/m*3 17.3 C 6.4 km/h
277 21-07-2021 23:00:00 17.2 C 11.72 g/m*3 17.2 C 8.1 km/h
278 21-07-2021 23:05:00 17.2 C 11.72 g/m*3 17.2 C 6.4 km/h
279 21-07-2021 23:10:00 17.3 C 11.93 g/m*3 17.3 C 0 km/h
280 21-07-2021 23:15:00 17.3 C 11.93 g/m*3 17.3 C 3.2 km/h
281 21-07-2021 23:20:00 17.3 C 11.93 g/m*3 17.3 C 0 km/h
282 21-07-2021 23:25:00 17.2 C 12.01 g/m*3 17.2 C 0 km/h
283 21-07-2021 23:30:00 17.1 C 11.94 g/m*3 17.1 C 0 km/h
284 21-07-2021 23:35:00 17 C 12.01 g/m*3 17 C 0 km/h
285 21-07-2021 23:40:00 16.8 C 11.87 g/m*3 16.8 C 0 km/h
286 21-07-2021 23:45:00 16.7 C 11.94 g/m*3 16.7 C 0 km/h
287 21-07-2021 23:50:00 16.6 C 11.87 g/m*3 16.6 C 0 km/h
288 21-07-2021 23:55:00 16.4 C 11.86 g/m*3 16.4 C 0 km/h
289 22-07-2021 00:00:00 16.3 C 11.79 g/m*3 16.3 C 0 km/h
290 22-07-2021 00:05:00 16.2 C 11.72 g/m*3 16.2 C 0 km/h
291 22-07-2021 00:10:00 16.1 C 11.79 g/m*3 16.1 C 0 km/h
292 22-07-2021 00:15:00 15.9 C 11.65 g/m*3 15.9 C 0 km/h
293 22-07-2021 00:20:00 15.8 C 11.71 g/m*3 15.8 C 0 km/h
294 22-07-2021 00:25:00 15.8 C 11.71 g/m*3 15.8 C 0 km/h
295 22-07-2021 00:30:00 15.7 C 11.64 g/m*3 15.7 C 0 km/h
296 22-07-2021 00:35:00 15.6 C 11.7 g/m*3 15.6 C 0 km/h
297 22-07-2021 00:40:00 15.4 C 11.56 g/m*3 15.4 C 0 km/h
298 22-07-2021 00:45:00 15.3 C 11.49 g/m*3 15.3 C 0 km/h
299 22-07-2021 00:50:00 15.2 C 11.42 g/m*3 15.2 C 0 km/h
300 22-07-2021 00:55:00 15.1 C 11.35 g/m*3 15.1 C 0 km/h
Sensor: Nr:Datum:Temp:Abs-Feuchte:Windchill:Wind:
Aussen-T/F 301 22-07-2021 01:00:00 15 C 11.41 g/m*3 15 C 0 km/h
302 22-07-2021 01:05:00 14.9 C 11.34 g/m*3 14.9 C 0 km/h
303 22-07-2021 01:10:00 14.8 C 11.27 g/m*3 14.8 C 0 km/h
304 22-07-2021 01:15:00 14.7 C 11.33 g/m*3 14.7 C 0 km/h
305 22-07-2021 01:20:00 14.7 C 11.33 g/m*3 14.7 C 0 km/h
306 22-07-2021 01:25:00 14.6 C 11.26 g/m*3 14.6 C 0 km/h
307 22-07-2021 01:30:00 14.5 C 11.19 g/m*3 14.5 C 0 km/h
308 22-07-2021 01:35:00 14.4 C 11.13 g/m*3 14.4 C 0 km/h
309 22-07-2021 01:40:00 14.3 C 11.06 g/m*3 14.3 C 0 km/h
310 22-07-2021 01:45:00 14.3 C 11.06 g/m*3 14.3 C 0 km/h
311 22-07-2021 01:50:00 14.2 C 11.11 g/m*3 14.2 C 0 km/h
312 22-07-2021 01:55:00 14.2 C 11.11 g/m*3 14.2 C 0 km/h
313 22-07-2021 02:00:00 14.1 C 11.04 g/m*3 14.1 C 0 km/h
314 22-07-2021 02:05:00 14 C 10.98 g/m*3 14 C 0 km/h
315 22-07-2021 02:10:00 13.9 C 10.91 g/m*3 13.9 C 0 km/h
316 22-07-2021 02:15:00 13.9 C 11.03 g/m*3 13.9 C 0 km/h
317 22-07-2021 02:20:00 13.8 C 10.96 g/m*3 13.8 C 0 km/h
318 22-07-2021 02:25:00 13.8 C 10.96 g/m*3 13.8 C 0 km/h
319 22-07-2021 02:30:00 13.8 C 10.96 g/m*3 13.8 C 0 km/h
320 22-07-2021 02:35:00 13.7 C 10.89 g/m*3 13.7 C 0 km/h
321 22-07-2021 02:40:00 13.7 C 10.89 g/m*3 13.7 C 0 km/h
322 22-07-2021 02:45:00 13.7 C 10.89 g/m*3 13.7 C 0 km/h
323 22-07-2021 02:50:00 13.6 C 10.95 g/m*3 13.6 C 0 km/h
324 22-07-2021 02:55:00 13.6 C 10.95 g/m*3 13.6 C 0 km/h
325 22-07-2021 03:00:00 13.5 C 10.88 g/m*3 13.5 C 0 km/h
Sensor: Nr:Datum:Temp:Abs-Feuchte:Windchill:Wind:
Aussen-T/F 326 22-07-2021 03:05:00 13.4 C 10.81 g/m*3 13.4 C 0 km/h
327 22-07-2021 03:10:00 13.4 C 10.81 g/m*3 13.4 C 0 km/h
328 22-07-2021 03:15:00 13.3 C 10.74 g/m*3 13.3 C 0 km/h
329 22-07-2021 03:20:00 13.3 C 10.74 g/m*3 13.3 C 0 km/h
330 22-07-2021 03:25:00 13.3 C 10.74 g/m*3 13.3 C 0 km/h
331 22-07-2021 03:30:00 13.2 C 10.68 g/m*3 13.2 C 0 km/h
332 22-07-2021 03:35:00 13.2 C 10.68 g/m*3 13.2 C 0 km/h
333 22-07-2021 03:40:00 13.1 C 10.61 g/m*3 13.1 C 0 km/h
334 22-07-2021 03:45:00 13.1 C 10.61 g/m*3 13.1 C 0 km/h
335 22-07-2021 03:50:00 12.9 C 10.48 g/m*3 12.9 C 0 km/h
336 22-07-2021 03:55:00 12.9 C 10.48 g/m*3 12.9 C 0 km/h
337 22-07-2021 04:00:00 12.8 C 10.42 g/m*3 12.8 C 0 km/h
338 22-07-2021 04:05:00 12.8 C 10.42 g/m*3 12.8 C 0 km/h
339 22-07-2021 04:10:00 12.8 C 10.42 g/m*3 12.8 C 0 km/h
340 22-07-2021 04:15:00 12.7 C 10.46 g/m*3 12.7 C 0 km/h
341 22-07-2021 04:20:00 12.7 C 10.46 g/m*3 12.7 C 0 km/h
342 22-07-2021 04:25:00 12.7 C 10.46 g/m*3 12.7 C 0 km/h
343 22-07-2021 04:30:00 12.7 C 10.46 g/m*3 12.7 C 0 km/h
344 22-07-2021 04:35:00 12.7 C 10.46 g/m*3 12.7 C 0 km/h
345 22-07-2021 04:40:00 12.8 C 10.64 g/m*3 12.8 C 0 km/h
346 22-07-2021 04:45:00 12.8 C 10.64 g/m*3 12.8 C 0 km/h
347 22-07-2021 04:50:00 12.8 C 10.64 g/m*3 12.8 C 0 km/h
348 22-07-2021 04:55:00 12.9 C 10.71 g/m*3 12.9 C 0 km/h
349 22-07-2021 05:00:00 12.9 C 10.71 g/m*3 12.9 C 0 km/h
350 22-07-2021 05:05:00 12.9 C 10.71 g/m*3 12.9 C 0 km/h
Sensor: Nr:Datum:Temp:Abs-Feuchte:Windchill:Wind:
Aussen-T/F 351 22-07-2021 05:10:00 12.8 C 10.64 g/m*3 12.8 C 0 km/h
352 22-07-2021 05:15:00 12.8 C 10.64 g/m*3 12.8 C 0 km/h
353 22-07-2021 05:20:00 12.8 C 10.64 g/m*3 12.8 C 0 km/h
354 22-07-2021 05:25:00 12.8 C 10.64 g/m*3 12.8 C 0 km/h
355 22-07-2021 05:30:00 12.8 C 10.64 g/m*3 12.8 C 0 km/h
356 22-07-2021 05:35:00 12.8 C 10.64 g/m*3 12.8 C 0 km/h
357 22-07-2021 05:40:00 12.9 C 10.71 g/m*3 12.9 C 0 km/h
358 22-07-2021 05:45:00 12.9 C 10.71 g/m*3 12.9 C 0 km/h
359 22-07-2021 05:50:00 12.8 C 10.64 g/m*3 12.8 C 0 km/h
360 22-07-2021 05:55:00 12.8 C 10.64 g/m*3 12.8 C 0 km/h
361 22-07-2021 06:00:00 12.9 C 10.71 g/m*3 12.9 C 0 km/h
362 22-07-2021 06:05:00 12.9 C 10.71 g/m*3 12.9 C 0 km/h
363 22-07-2021 06:10:00 12.9 C 10.71 g/m*3 12.9 C 0 km/h
364 22-07-2021 06:15:00 12.9 C 10.71 g/m*3 12.9 C 0 km/h
365 22-07-2021 06:20:00 13 C 10.89 g/m*3 13 C 0 km/h
366 22-07-2021 06:25:00 13.1 C 10.84 g/m*3 13.1 C 0 km/h
367 22-07-2021 06:30:00 13.2 C 11.02 g/m*3 13.2 C 0 km/h
368 22-07-2021 06:35:00 13.2 C 11.02 g/m*3 13.2 C 0 km/h
369 22-07-2021 06:40:00 13.2 C 11.02 g/m*3 13.2 C 0 km/h
370 22-07-2021 06:45:00 13.3 C 11.09 g/m*3 13.3 C 0 km/h
371 22-07-2021 06:50:00 13.3 C 11.09 g/m*3 13.3 C 0 km/h
372 22-07-2021 06:55:00 13.4 C 11.16 g/m*3 13.4 C 0 km/h
373 22-07-2021 07:00:00 13.4 C 11.16 g/m*3 13.4 C 0 km/h
374 22-07-2021 07:05:00 13.5 C 11.23 g/m*3 13.5 C 0 km/h
375 22-07-2021 07:10:00 13.6 C 11.3 g/m*3 13.6 C 0 km/h
Sensor: Nr:Datum:Temp:Abs-Feuchte:Windchill:Wind:
Aussen-T/F 376 22-07-2021 07:15:00 13.6 C 11.18 g/m*3 13.6 C 0 km/h
377 22-07-2021 07:20:00 13.7 C 11.37 g/m*3 13.7 C 0 km/h
378 22-07-2021 07:25:00 13.7 C 11.37 g/m*3 13.7 C 0 km/h
379 22-07-2021 07:30:00 13.8 C 11.32 g/m*3 13.8 C 0 km/h
380 22-07-2021 07:35:00 13.9 C 11.39 g/m*3 13.9 C 1.6 km/h
381 22-07-2021 07:40:00 13.9 C 11.39 g/m*3 13.9 C 1.6 km/h
382 22-07-2021 07:45:00 14.1 C 11.53 g/m*3 14.1 C 0 km/h
383 22-07-2021 07:50:00 14.2 C 11.6 g/m*3 14.2 C 0 km/h
384 22-07-2021 07:55:00 14.3 C 11.67 g/m*3 14.3 C 3.2 km/h
385 22-07-2021 08:00:00 14.3 C 11.67 g/m*3 14.3 C 1.6 km/h
386 22-07-2021 08:05:00 14.4 C 11.62 g/m*3 14.4 C 0 km/h
387 22-07-2021 08:10:00 14.4 C 11.62 g/m*3 14.4 C 0 km/h
388 22-07-2021 08:15:00 14.5 C 11.69 g/m*3 14.5 C 0 km/h
389 22-07-2021 08:20:00 14.6 C 11.64 g/m*3 14.6 C 0 km/h
390 22-07-2021 08:25:00 14.7 C 11.71 g/m*3 14.7 C 0 km/h
391 22-07-2021 08:30:00 14.8 C 11.78 g/m*3 14.8 C 0 km/h
392 22-07-2021 08:35:00 14.9 C 11.85 g/m*3 14.9 C 0 km/h
393 22-07-2021 08:40:00 15.1 C 12 g/m*3 15.1 C 0 km/h
394 22-07-2021 08:45:00 15.2 C 11.94 g/m*3 15.2 C 0 km/h
395 22-07-2021 08:50:00 15.3 C 12.01 g/m*3 15.3 C 0 km/h
396 22-07-2021 08:55:00 15.4 C 12.09 g/m*3 15.4 C 0 km/h
397 22-07-2021 09:00:00 15.6 C 12.37 g/m*3 15.6 C 0 km/h
398 22-07-2021 09:05:00 15.7 C 12.44 g/m*3 15.7 C 0 km/h
399 22-07-2021 09:10:00 15.8 C 12.52 g/m*3 15.8 C 0 km/h
400 22-07-2021 09:15:00 15.9 C 12.59 g/m*3 15.9 C 0 km/h
Sensor: Nr:Datum:Temp:Abs-Feuchte:Windchill:Wind:
Aussen-T/F 401 22-07-2021 09:20:00 16.1 C 12.75 g/m*3 16.1 C 0 km/h
402 22-07-2021 09:25:00 16.2 C 12.82 g/m*3 16.2 C 0 km/h
403 22-07-2021 09:30:00 16.3 C 12.9 g/m*3 16.3 C 0 km/h
404 22-07-2021 09:35:00 16.4 C 12.98 g/m*3 16.4 C 0 km/h
405 22-07-2021 09:40:00 16.6 C 13.14 g/m*3 16.6 C 0 km/h
406 22-07-2021 09:45:00 16.7 C 13.22 g/m*3 16.7 C 0 km/h
407 22-07-2021 09:50:00 16.8 C 13.3 g/m*3 16.8 C 0 km/h
408 22-07-2021 09:55:00 16.9 C 13.23 g/m*3 16.9 C 0 km/h
409 22-07-2021 10:00:00 16.9 C 13.23 g/m*3 16.9 C 0 km/h
410 22-07-2021 10:05:00 17.1 C 13.39 g/m*3 17.1 C 0 km/h
411 22-07-2021 10:10:00 17.2 C 13.33 g/m*3 17.2 C 0 km/h
412 22-07-2021 10:15:00 17.3 C 13.11 g/m*3 17.3 C 0 km/h
413 22-07-2021 10:20:00 17.4 C 13.34 g/m*3 17.4 C 0 km/h
414 22-07-2021 10:25:00 17.6 C 13.5 g/m*3 17.6 C 0 km/h
415 22-07-2021 10:30:00 17.7 C 13.43 g/m*3 17.7 C 0 km/h
416 22-07-2021 10:35:00 17.9 C 13.59 g/m*3 17.9 C 0 km/h
417 22-07-2021 10:40:00 18.2 C 13.83 g/m*3 18.2 C 0 km/h
418 22-07-2021 10:45:00 18.3 C 13.45 g/m*3 18.3 C 0 km/h
419 22-07-2021 10:50:00 18.5 C 13.77 g/m*3 18.5 C 0 km/h
420 22-07-2021 10:55:00 18.7 C 13.61 g/m*3 18.7 C 0 km/h
421 22-07-2021 11:00:00 18.8 C 13.37 g/m*3 18.8 C 0 km/h
422 22-07-2021 11:05:00 19.1 C 13.61 g/m*3 19.1 C 0 km/h
423 22-07-2021 11:10:00 19.3 C 13.77 g/m*3 19.3 C 0 km/h
424 22-07-2021 11:15:00 19.6 C 14.35 g/m*3 19.6 C 0 km/h
425 22-07-2021 11:20:00 19.6 C 13.84 g/m*3 19.6 C 0 km/h
Sensor: Nr:Datum:Temp:Abs-Feuchte:Windchill:Wind:
Aussen-T/F 426 22-07-2021 11:25:00 19.7 C 13.41 g/m*3 19.7 C 3.2 km/h
427 22-07-2021 11:30:00 19.9 C 13.57 g/m*3 19.9 C 0 km/h
428 22-07-2021 11:35:00 20.2 C 13.81 g/m*3 20.2 C 0 km/h
429 22-07-2021 11:40:00 20.3 C 13.19 g/m*3 20.3 C 0 km/h
430 22-07-2021 11:45:00 20.6 C 13.6 g/m*3 20.6 C 0 km/h
431 22-07-2021 11:50:00 20.8 C 13.4 g/m*3 20.8 C 0 km/h
432 22-07-2021 11:55:00 20.9 C 13.3 g/m*3 20.9 C 0 km/h
433 22-07-2021 12:00:00 21 C 12.46 g/m*3 21 C 0 km/h
434 22-07-2021 12:05:00 21.2 C 13.34 g/m*3 21.2 C 0 km/h
435 22-07-2021 12:10:00 21.3 C 12.86 g/m*3 21.3 C 0 km/h
436 22-07-2021 12:15:00 21.5 C 12.26 g/m*3 21.5 C 0 km/h
437 22-07-2021 12:20:00 21.7 C 12.02 g/m*3 21.7 C 0 km/h
438 22-07-2021 12:25:00 21.8 C 12.09 g/m*3 21.8 C 3.2 km/h
439 22-07-2021 12:30:00 22 C 12.23 g/m*3 22 C 3.2 km/h
440 22-07-2021 12:35:00 22.2 C 12.96 g/m*3 22.2 C 0 km/h
441 22-07-2021 12:40:00 22.3 C 13.23 g/m*3 22.3 C 0 km/h
442 22-07-2021 12:45:00 22.3 C 12.24 g/m*3 22.3 C 0 km/h
443 22-07-2021 12:50:00 22.3 C 12.24 g/m*3 22.3 C 0 km/h
444 22-07-2021 12:55:00 22.5 C 12.58 g/m*3 22.5 C 4.8 km/h
445 22-07-2021 13:00:00 22.7 C 12.12 g/m*3 22.7 C 0 km/h
446 22-07-2021 13:05:00 22.9 C 12.06 g/m*3 22.9 C 6.4 km/h
447 22-07-2021 13:10:00 23.1 C 12.61 g/m*3 23.1 C 6.4 km/h
448 22-07-2021 13:15:00 23.2 C 12.27 g/m*3 23.2 C 6.4 km/h
449 22-07-2021 13:20:00 23.4 C 11.78 g/m*3 23.4 C 6.4 km/h
450 22-07-2021 13:25:00 23.7 C 11.55 g/m*3 23.7 C 9.7 km/h
Sensor: Nr:Datum:Temp:Abs-Feuchte:Windchill:Wind:
Aussen-T/F 451 22-07-2021 13:30:00 23.9 C 12.76 g/m*3 23.9 C 6.4 km/h
452 22-07-2021 13:35:00 24.1 C 11.82 g/m*3 24.1 C 9.7 km/h
453 22-07-2021 13:40:00 24.1 C 11.82 g/m*3 24.1 C 6.4 km/h
454 22-07-2021 13:45:00 24 C 11.97 g/m*3 24 C 6.4 km/h
455 22-07-2021 13:50:00 23.9 C 11.9 g/m*3 23.9 C 4.8 km/h
456 22-07-2021 13:55:00 23.9 C 11.9 g/m*3 23.9 C 0 km/h
457 22-07-2021 14:00:00 23.9 C 12.33 g/m*3 23.9 C 4.8 km/h
458 22-07-2021 14:05:00 24 C 13.05 g/m*3 24 C 4.8 km/h
459 22-07-2021 14:10:00 24.1 C 12.91 g/m*3 24.1 C 4.8 km/h
460 22-07-2021 14:15:00 24.1 C 12.25 g/m*3 24.1 C 4.8 km/h
461 22-07-2021 14:20:00 24.4 C 12.24 g/m*3 24.4 C 12.9 km/h
462 22-07-2021 14:25:00 24.6 C 11.93 g/m*3 24.6 C 9.7 km/h
463 22-07-2021 14:30:00 24.6 C 12.83 g/m*3 24.6 C 6.4 km/h
464 22-07-2021 14:35:00 24.5 C 11.86 g/m*3 24.5 C 4.8 km/h
465 22-07-2021 14:40:00 24.4 C 12.02 g/m*3 24.4 C 4.8 km/h
466 22-07-2021 14:45:00 24.4 C 13.13 g/m*3 24.4 C 0 km/h
467 22-07-2021 14:50:00 24.3 C 11.73 g/m*3 24.3 C 0 km/h
468 22-07-2021 14:55:00 24.4 C 13.35 g/m*3 24.4 C 3.2 km/h
469 22-07-2021 15:00:00 24.7 C 12.45 g/m*3 24.7 C 3.2 km/h
470 22-07-2021 15:05:00 24.7 C 13.13 g/m*3 24.7 C 0 km/h
471 22-07-2021 15:10:00 24.7 C 14.03 g/m*3 24.7 C 0 km/h
472 22-07-2021 15:15:00 24.7 C 13.81 g/m*3 24.7 C 4.8 km/h
473 22-07-2021 15:20:00 24.7 C 13.13 g/m*3 24.7 C 4.8 km/h
474 22-07-2021 15:25:00 24.7 C 12.45 g/m*3 24.7 C 3.2 km/h
475 22-07-2021 15:30:00 24.8 C 13.88 g/m*3 24.8 C 1.6 km/h
Sensor: Nr:Datum:Temp:Abs-Feuchte:Windchill:Wind:
Aussen-T/F 476 22-07-2021 15:35:00 24.9 C 14.65 g/m*3 24.9 C 3.2 km/h
477 22-07-2021 15:40:00 24.9 C 13.96 g/m*3 24.9 C 0 km/h
478 22-07-2021 15:45:00 24.8 C 12.29 g/m*3 24.8 C 9.7 km/h
479 22-07-2021 15:50:00 24.8 C 12.29 g/m*3 24.8 C 6.4 km/h
480 22-07-2021 15:55:00 24.8 C 12.52 g/m*3 24.8 C 0 km/h
481 22-07-2021 16:00:00 24.8 C 13.43 g/m*3 24.8 C 6.4 km/h
482 22-07-2021 16:05:00 24.8 C 12.52 g/m*3 24.8 C 4.8 km/h
483 22-07-2021 16:10:00 24.8 C 12.75 g/m*3 24.8 C 6.4 km/h
484 22-07-2021 16:15:00 24.9 C 14.42 g/m*3 24.9 C 3.2 km/h
485 22-07-2021 16:20:00 24.9 C 13.73 g/m*3 24.9 C 4.8 km/h
486 22-07-2021 16:25:00 24.9 C 12.82 g/m*3 24.9 C 6.4 km/h
487 22-07-2021 16:30:00 25 C 12.89 g/m*3 25 C 4.8 km/h
488 22-07-2021 16:35:00 25.4 C 13.18 g/m*3 25.4 C 4.8 km/h
489 22-07-2021 16:40:00 25.9 C 13.07 g/m*3 25.9 C 6.4 km/h
490 22-07-2021 16:45:00 26.2 C 12.56 g/m*3 26.2 C 6.4 km/h
491 22-07-2021 16:50:00 26.6 C 13.34 g/m*3 26.6 C 3.2 km/h
492 22-07-2021 16:55:00 26.9 C 12.8 g/m*3 26.9 C 4.8 km/h
493 22-07-2021 17:00:00 27.1 C 12.42 g/m*3 27.1 C 8.1 km/h
494 22-07-2021 17:05:00 26.8 C 12.47 g/m*3 26.8 C 6.4 km/h
495 22-07-2021 17:10:00 26.3 C 12.63 g/m*3 26.3 C 8.1 km/h
496 22-07-2021 17:15:00 25.9 C 12.59 g/m*3 25.9 C 6.4 km/h
497 22-07-2021 17:20:00 25.7 C 13.17 g/m*3 25.7 C 6.4 km/h
498 22-07-2021 17:25:00 25.6 C 14.52 g/m*3 25.6 C 0 km/h
499 22-07-2021 17:30:00 25.3 C 14.28 g/m*3 25.3 C 1.6 km/h
500 22-07-2021 17:35:00 25.2 C 15.13 g/m*3 25.2 C 3.2 km/h
Sensor: Nr:Datum:Temp:Abs-Feuchte:Windchill:Wind:
Aussen-T/F 501 22-07-2021 17:40:00 25.1 C 15.28 g/m*3 25.1 C 1.6 km/h
502 22-07-2021 17:45:00 25 C 15.88 g/m*3 25 C 1.6 km/h
503 22-07-2021 17:50:00 24.9 C 16.25 g/m*3 24.9 C 0 km/h
504 22-07-2021 17:55:00 24.9 C 16.25 g/m*3 24.9 C 0 km/h
505 22-07-2021 18:00:00 24.8 C 15.71 g/m*3 24.8 C 1.6 km/h
506 22-07-2021 18:05:00 24.7 C 13.35 g/m*3 24.7 C 3.2 km/h
507 22-07-2021 18:10:00 25.2 C 13.04 g/m*3 25.2 C 8.1 km/h
508 22-07-2021 18:15:00 25.7 C 13.65 g/m*3 25.7 C 4.8 km/h
509 22-07-2021 18:20:00 26.2 C 12.8 g/m*3 26.2 C 4.8 km/h
510 22-07-2021 18:25:00 26.6 C 13.09 g/m*3 26.6 C 4.8 km/h
511 22-07-2021 18:30:00 26.7 C 12.4 g/m*3 26.7 C 6.4 km/h
512 22-07-2021 18:35:00 26.7 C 12.91 g/m*3 26.7 C 8.1 km/h
513 22-07-2021 18:40:00 26.7 C 12.91 g/m*3 26.7 C 3.2 km/h
514 22-07-2021 18:45:00 26.7 C 13.16 g/m*3 26.7 C 4.8 km/h
515 22-07-2021 18:50:00 26.8 C 13.24 g/m*3 26.8 C 0 km/h
516 22-07-2021 18:55:00 26.8 C 12.22 g/m*3 26.8 C 0 km/h
517 22-07-2021 19:00:00 26.7 C 12.91 g/m*3 26.7 C 0 km/h
518 22-07-2021 19:05:00 26.7 C 13.67 g/m*3 26.7 C 0 km/h
519 22-07-2021 19:10:00 26.7 C 15.44 g/m*3 26.7 C 0 km/h
520 22-07-2021 19:15:00 26.6 C 15.1 g/m*3 26.6 C 0 km/h
521 22-07-2021 19:20:00 26.4 C 15.43 g/m*3 26.4 C 0 km/h
522 22-07-2021 19:25:00 26.2 C 15.76 g/m*3 26.2 C 0 km/h
523 22-07-2021 19:30:00 26 C 15.82 g/m*3 26 C 0 km/h
524 22-07-2021 19:35:00 25.7 C 15.32 g/m*3 25.7 C 0 km/h
525 22-07-2021 19:40:00 25.4 C 15.07 g/m*3 25.4 C 0 km/h
Sensor: Nr:Datum:Temp:Abs-Feuchte:Windchill:Wind:
Aussen-T/F 526 22-07-2021 19:45:00 25.2 C 15.13 g/m*3 25.2 C 0 km/h
527 22-07-2021 19:50:00 24.7 C 14.71 g/m*3 24.7 C 0 km/h
528 22-07-2021 19:55:00 24.4 C 14.91 g/m*3 24.4 C 0 km/h
529 22-07-2021 20:00:00 24.1 C 14.66 g/m*3 24.1 C 0 km/h
530 22-07-2021 20:05:00 23.7 C 14.54 g/m*3 23.7 C 0 km/h
531 22-07-2021 20:10:00 23.4 C 14.72 g/m*3 23.4 C 4.8 km/h
532 22-07-2021 20:15:00 23.1 C 14.47 g/m*3 23.1 C 3.2 km/h
533 22-07-2021 20:20:00 22.8 C 14.43 g/m*3 22.8 C 4.8 km/h
534 22-07-2021 20:25:00 22.5 C 14.18 g/m*3 22.5 C 4.8 km/h
535 22-07-2021 20:30:00 22.2 C 13.94 g/m*3 22.2 C 6.4 km/h
536 22-07-2021 20:35:00 21.9 C 13.89 g/m*3 21.9 C 4.8 km/h
537 22-07-2021 20:40:00 21.7 C 13.73 g/m*3 21.7 C 8.1 km/h
538 22-07-2021 20:45:00 21.4 C 13.5 g/m*3 21.4 C 8.1 km/h
539 22-07-2021 20:50:00 21.2 C 13.34 g/m*3 21.2 C 6.4 km/h
540 22-07-2021 20:55:00 21.1 C 13.63 g/m*3 21.1 C 6.4 km/h
541 22-07-2021 21:00:00 20.8 C 13.04 g/m*3 20.8 C 6.4 km/h
542 22-07-2021 21:05:00 20.6 C 13.24 g/m*3 20.6 C 8.1 km/h
543 22-07-2021 21:10:00 20.3 C 13.19 g/m*3 20.3 C 6.4 km/h
544 22-07-2021 21:15:00 20.1 C 13.04 g/m*3 20.1 C 6.4 km/h
545 22-07-2021 21:20:00 19.9 C 13.06 g/m*3 19.9 C 6.4 km/h
546 22-07-2021 21:25:00 19.6 C 12.83 g/m*3 19.6 C 4.8 km/h
547 22-07-2021 21:30:00 19.4 C 12.68 g/m*3 19.4 C 4.8 km/h
548 22-07-2021 21:35:00 19.3 C 12.94 g/m*3 19.3 C 4.8 km/h
549 22-07-2021 21:40:00 19.1 C 12.95 g/m*3 19.1 C 1.6 km/h
550 22-07-2021 21:45:00 18.8 C 12.88 g/m*3 18.8 C 0 km/h
Sensor: Nr:Datum:Temp:Abs-Feuchte:Windchill:Wind:
Aussen-T/F 551 22-07-2021 21:50:00 18.7 C 12.97 g/m*3 18.7 C 0 km/h
552 22-07-2021 21:55:00 18.4 C 12.74 g/m*3 18.4 C 0 km/h
553 22-07-2021 22:00:00 18.2 C 12.59 g/m*3 18.2 C 0 km/h
554 22-07-2021 22:05:00 18 C 12.59 g/m*3 18 C 0 km/h
555 22-07-2021 22:10:00 17.8 C 12.6 g/m*3 17.8 C 0 km/h
556 22-07-2021 22:15:00 17.7 C 12.67 g/m*3 17.7 C 0 km/h
557 22-07-2021 22:20:00 17.5 C 12.52 g/m*3 17.5 C 0 km/h
558 22-07-2021 22:25:00 17.3 C 12.37 g/m*3 17.3 C 0 km/h
559 22-07-2021 22:30:00 17.3 C 12.52 g/m*3 17.3 C 0 km/h
560 22-07-2021 22:35:00 17.1 C 12.37 g/m*3 17.1 C 0 km/h
561 22-07-2021 22:40:00 17 C 12.3 g/m*3 17 C 0 km/h
562 22-07-2021 22:45:00 16.9 C 12.37 g/m*3 16.9 C 0 km/h
563 22-07-2021 22:50:00 16.8 C 12.3 g/m*3 16.8 C 0 km/h
564 22-07-2021 22:55:00 16.7 C 12.22 g/m*3 16.7 C 0 km/h
565 22-07-2021 23:00:00 16.6 C 12.15 g/m*3 16.6 C 0 km/h
566 22-07-2021 23:05:00 16.6 C 12.29 g/m*3 16.6 C 0 km/h
567 22-07-2021 23:10:00 16.6 C 12.29 g/m*3 16.6 C 0 km/h
568 22-07-2021 23:15:00 16.5 C 12.22 g/m*3 16.5 C 0 km/h
569 22-07-2021 23:20:00 16.5 C 12.22 g/m*3 16.5 C 0 km/h
570 22-07-2021 23:25:00 16.5 C 12.36 g/m*3 16.5 C 0 km/h
571 22-07-2021 23:30:00 16.6 C 12.43 g/m*3 16.6 C 0 km/h
572 22-07-2021 23:35:00 16.6 C 12.43 g/m*3 16.6 C 0 km/h
573 22-07-2021 23:40:00 16.6 C 12.43 g/m*3 16.6 C 0 km/h
574 22-07-2021 23:45:00 16.7 C 12.51 g/m*3 16.7 C 0 km/h
575 22-07-2021 23:50:00 16.6 C 12.43 g/m*3 16.6 C 0 km/h
Sensor: Nr:Datum:Temp:Abs-Feuchte:Windchill:Wind:
Aussen-T/F 576 22-07-2021 23:55:00 16.6 C 12.43 g/m*3 16.6 C 0 km/h

Legende:
   Min
   Max


Maximal/Minimal-Werte vom 21.07.2021 - 22.07.2021

Sensor Min Max Avg
Temp
(Aussen-T/F)
10.8 °C
21-07-2021  06:10:00
28.1 °C
21-07-2021  18:20:00
18.47 °C
Abs-Feuchte
(Aussen-T/F)
9.29 g/m*3
21-07-2021  06:10:00
16.25 g/m*3
22-07-2021  17:50:00
11.71 g/m*3
Windchill
(Aussen-T/F)
10.8 C
21-07-2021  06:10:00
28.1 C
21-07-2021  18:20:00
18.44 C

Die Daten stammen von einer Davis Vantage Pro 2 Wetter-Station und werden unter Linux mit der Software wview2wettercgi und aufbereitet. Alle Angaben erfolgen ohne Gewähr für ihre Vollständigkeit oder Richtigkeit.
Kontakt: Rainer Krienke krienke@uni-koblenz.de . Meine Webseiten an der Uni Koblenz oder privat.
Version: $Revision: 0.78 $